sensor_id;sensor_type;location;lat;lon;timestamp;P1;durP1;ratioP1;P2;durP2;ratioP2
31782;SDS011;18351;47.560;9.708;2023-01-01T00:01:29;643.70;;;414.90;;
31782;SDS011;18351;47.560;9.708;2023-01-01T00:03:55;541.85;;;342.35;;
31782;SDS011;18351;47.560;9.708;2023-01-01T00:06:22;513.03;;;312.20;;
31782;SDS011;18351;47.560;9.708;2023-01-01T00:08:48;462.42;;;283.20;;
31782;SDS011;18351;47.560;9.708;2023-01-01T00:11:33;474.10;;;290.08;;
31782;SDS011;18351;47.560;9.708;2023-01-01T00:13:59;408.00;;;255.77;;
31782;SDS011;18351;47.560;9.708;2023-01-01T00:16:24;452.95;;;275.88;;
31782;SDS011;18351;47.560;9.708;2023-01-01T00:18:50;445.98;;;269.88;;
31782;SDS011;18351;47.560;9.708;2023-01-01T00:21:15;393.98;;;242.90;;
31782;SDS011;18351;47.560;9.708;2023-01-01T00:23:41;436.65;;;266.70;;
31782;SDS011;18351;47.560;9.708;2023-01-01T00:26:11;467.88;;;281.80;;
31782;SDS011;18351;47.560;9.708;2023-01-01T00:28:37;385.48;;;235.57;;
31782;SDS011;18351;47.560;9.708;2023-01-01T00:31:09;322.63;;;191.50;;
31782;SDS011;18351;47.560;9.708;2023-01-01T00:33:37;351.45;;;211.27;;
31782;SDS011;18351;47.560;9.708;2023-01-01T00:38:35;276.10;;;155.77;;
31782;SDS011;18351;47.560;9.708;2023-01-01T00:41:01;230.73;;;128.45;;
31782;SDS011;18351;47.560;9.708;2023-01-01T00:43:28;162.52;;;98.72;;
31782;SDS011;18351;47.560;9.708;2023-01-01T00:45:53;138.65;;;79.40;;
31782;SDS011;18351;47.560;9.708;2023-01-01T00:48:19;137.07;;;83.75;;
31782;SDS011;18351;47.560;9.708;2023-01-01T00:50:46;114.05;;;68.07;;
31782;SDS011;18351;47.560;9.708;2023-01-01T00:53:12;127.38;;;76.88;;
31782;SDS011;18351;47.560;9.708;2023-01-01T00:55:38;133.65;;;78.93;;
31782;SDS011;18351;47.560;9.708;2023-01-01T00:58:04;167.95;;;91.82;;
31782;SDS011;18351;47.560;9.708;2023-01-01T01:00:30;129.70;;;79.57;;
31782;SDS011;18351;47.560;9.708;2023-01-01T01:02:56;130.23;;;76.28;;
31782;SDS011;18351;47.560;9.708;2023-01-01T01:05:21;121.60;;;75.00;;
31782;SDS011;18351;47.560;9.708;2023-01-01T01:07:47;123.15;;;74.25;;
31782;SDS011;18351;47.560;9.708;2023-01-01T01:10:12;147.98;;;87.60;;
31782;SDS011;18351;47.560;9.708;2023-01-01T01:12:38;168.40;;;99.22;;
31782;SDS011;18351;47.560;9.708;2023-01-01T01:15:04;147.15;;;83.82;;
31782;SDS011;18351;47.560;9.708;2023-01-01T01:17:31;126.10;;;74.57;;
31782;SDS011;18351;47.560;9.708;2023-01-01T01:19:57;119.47;;;74.50;;
31782;SDS011;18351;47.560;9.708;2023-01-01T01:22:23;132.73;;;80.70;;
31782;SDS011;18351;47.560;9.708;2023-01-01T01:24:48;151.18;;;86.70;;
31782;SDS011;18351;47.560;9.708;2023-01-01T01:27:14;139.95;;;83.13;;
31782;SDS011;18351;47.560;9.708;2023-01-01T01:29:40;131.02;;;76.93;;
31782;SDS011;18351;47.560;9.708;2023-01-01T01:32:06;129.70;;;76.47;;
31782;SDS011;18351;47.560;9.708;2023-01-01T01:34:31;119.93;;;71.07;;
31782;SDS011;18351;47.560;9.708;2023-01-01T01:36:57;125.32;;;75.05;;
31782;SDS011;18351;47.560;9.708;2023-01-01T01:39:22;139.15;;;80.35;;
31782;SDS011;18351;47.560;9.708;2023-01-01T01:41:48;128.77;;;78.53;;
31782;SDS011;18351;47.560;9.708;2023-01-01T01:47:21;132.52;;;80.82;;
31782;SDS011;18351;47.560;9.708;2023-01-01T01:53:01;158.73;;;91.07;;
31782;SDS011;18351;47.560;9.708;2023-01-01T01:55:55;200.85;;;112.15;;
31782;SDS011;18351;47.560;9.708;2023-01-01T01:58:24;174.77;;;97.53;;
31782;SDS011;18351;47.560;9.708;2023-01-01T02:00:51;157.98;;;94.13;;
31782;SDS011;18351;47.560;9.708;2023-01-01T02:06:00;135.02;;;79.18;;
31782;SDS011;18351;47.560;9.708;2023-01-01T02:08:27;129.55;;;76.90;;
31782;SDS011;18351;47.560;9.708;2023-01-01T02:10:54;124.85;;;70.57;;
31782;SDS011;18351;47.560;9.708;2023-01-01T02:13:19;130.57;;;76.45;;
31782;SDS011;18351;47.560;9.708;2023-01-01T02:15:47;122.60;;;72.15;;
31782;SDS011;18351;47.560;9.708;2023-01-01T02:18:19;126.40;;;77.63;;
31782;SDS011;18351;47.560;9.708;2023-01-01T02:20:58;115.72;;;68.78;;
31782;SDS011;18351;47.560;9.708;2023-01-01T02:31:48;114.47;;;70.00;;
31782;SDS011;18351;47.560;9.708;2023-01-01T02:34:27;123.22;;;72.35;;
31782;SDS011;18351;47.560;9.708;2023-01-01T02:36:58;127.47;;;73.97;;
31782;SDS011;18351;47.560;9.708;2023-01-01T02:39:25;126.10;;;75.43;;
31782;SDS011;18351;47.560;9.708;2023-01-01T02:41:54;127.63;;;76.43;;
31782;SDS011;18351;47.560;9.708;2023-01-01T02:44:21;128.02;;;78.78;;
31782;SDS011;18351;47.560;9.708;2023-01-01T02:46:49;121.30;;;72.43;;
31782;SDS011;18351;47.560;9.708;2023-01-01T02:49:15;125.05;;;73.78;;
31782;SDS011;18351;47.560;9.708;2023-01-01T03:00:16;121.85;;;74.05;;
31782;SDS011;18351;47.560;9.708;2023-01-01T03:05:37;148.32;;;85.80;;
31782;SDS011;18351;47.560;9.708;2023-01-01T03:19:59;135.57;;;79.63;;
31782;SDS011;18351;47.560;9.708;2023-01-01T03:22:30;144.02;;;87.53;;
31782;SDS011;18351;47.560;9.708;2023-01-01T03:25:20;128.90;;;77.32;;
31782;SDS011;18351;47.560;9.708;2023-01-01T03:27:51;136.52;;;81.22;;
31782;SDS011;18351;47.560;9.708;2023-01-01T03:30:27;130.13;;;79.45;;
31782;SDS011;18351;47.560;9.708;2023-01-01T03:32:57;136.40;;;80.85;;
31782;SDS011;18351;47.560;9.708;2023-01-01T03:38:09;127.35;;;78.68;;
31782;SDS011;18351;47.560;9.708;2023-01-01T03:40:39;125.50;;;77.65;;
31782;SDS011;18351;47.560;9.708;2023-01-01T03:43:17;138.88;;;83.70;;
31782;SDS011;18351;47.560;9.708;2023-01-01T03:45:49;131.70;;;78.80;;
31782;SDS011;18351;47.560;9.708;2023-01-01T03:48:17;138.38;;;81.55;;
31782;SDS011;18351;47.560;9.708;2023-01-01T03:50:54;131.60;;;76.80;;
31782;SDS011;18351;47.560;9.708;2023-01-01T03:53:39;137.20;;;80.72;;
31782;SDS011;18351;47.560;9.708;2023-01-01T03:56:08;129.07;;;76.82;;
31782;SDS011;18351;47.560;9.708;2023-01-01T03:58:48;119.93;;;73.00;;
31782;SDS011;18351;47.560;9.708;2023-01-01T04:01:29;131.35;;;78.55;;
31782;SDS011;18351;47.560;9.708;2023-01-01T04:03:59;121.50;;;75.85;;
31782;SDS011;18351;47.560;9.708;2023-01-01T04:06:27;137.77;;;79.97;;
31782;SDS011;18351;47.560;9.708;2023-01-01T04:08:54;133.75;;;76.28;;
31782;SDS011;18351;47.560;9.708;2023-01-01T04:11:25;138.00;;;79.50;;
31782;SDS011;18351;47.560;9.708;2023-01-01T04:14:12;127.85;;;76.00;;
31782;SDS011;18351;47.560;9.708;2023-01-01T04:16:37;127.50;;;75.05;;
31782;SDS011;18351;47.560;9.708;2023-01-01T04:19:03;148.68;;;87.93;;
31782;SDS011;18351;47.560;9.708;2023-01-01T04:21:31;132.65;;;76.63;;
31782;SDS011;18351;47.560;9.708;2023-01-01T04:23:57;136.15;;;80.43;;
31782;SDS011;18351;47.560;9.708;2023-01-01T04:26:22;142.63;;;82.32;;
31782;SDS011;18351;47.560;9.708;2023-01-01T04:28:48;144.63;;;79.72;;
31782;SDS011;18351;47.560;9.708;2023-01-01T04:31:13;129.65;;;77.85;;
31782;SDS011;18351;47.560;9.708;2023-01-01T04:33:39;145.52;;;85.47;;
31782;SDS011;18351;47.560;9.708;2023-01-01T04:36:05;144.73;;;85.50;;
31782;SDS011;18351;47.560;9.708;2023-01-01T04:38:33;131.10;;;77.97;;
31782;SDS011;18351;47.560;9.708;2023-01-01T04:40:59;133.00;;;77.10;;
31782;SDS011;18351;47.560;9.708;2023-01-01T04:43:26;135.13;;;79.85;;
31782;SDS011;18351;47.560;9.708;2023-01-01T04:45:59;131.63;;;77.18;;
31782;SDS011;18351;47.560;9.708;2023-01-01T04:48:26;128.20;;;73.45;;
31782;SDS011;18351;47.560;9.708;2023-01-01T04:50:56;139.07;;;83.25;;
31782;SDS011;18351;47.560;9.708;2023-01-01T04:53:28;129.35;;;80.30;;
31782;SDS011;18351;47.560;9.708;2023-01-01T04:55:54;130.05;;;75.82;;
31782;SDS011;18351;47.560;9.708;2023-01-01T04:58:20;125.68;;;73.68;;
31782;SDS011;18351;47.560;9.708;2023-01-01T05:00:49;118.63;;;73.30;;
31782;SDS011;18351;47.560;9.708;2023-01-01T05:03:15;116.57;;;69.90;;
31782;SDS011;18351;47.560;9.708;2023-01-01T05:05:41;113.93;;;68.10;;
31782;SDS011;18351;47.560;9.708;2023-01-01T05:08:07;122.38;;;71.82;;
31782;SDS011;18351;47.560;9.708;2023-01-01T05:10:33;108.95;;;66.38;;
31782;SDS011;18351;47.560;9.708;2023-01-01T05:12:59;121.25;;;70.75;;
31782;SDS011;18351;47.560;9.708;2023-01-01T05:15:24;110.20;;;66.10;;
31782;SDS011;18351;47.560;9.708;2023-01-01T05:17:50;117.55;;;67.18;;
31782;SDS011;18351;47.560;9.708;2023-01-01T05:20:15;108.05;;;64.80;;
31782;SDS011;18351;47.560;9.708;2023-01-01T05:22:41;101.85;;;62.33;;
31782;SDS011;18351;47.560;9.708;2023-01-01T05:25:06;103.93;;;60.75;;
31782;SDS011;18351;47.560;9.708;2023-01-01T05:27:32;112.53;;;66.90;;
31782;SDS011;18351;47.560;9.708;2023-01-01T05:29:58;105.88;;;62.13;;
31782;SDS011;18351;47.560;9.708;2023-01-01T05:32:23;92.60;;;54.67;;
31782;SDS011;18351;47.560;9.708;2023-01-01T05:34:49;102.53;;;57.40;;
31782;SDS011;18351;47.560;9.708;2023-01-01T05:37:15;94.50;;;56.83;;
31782;SDS011;18351;47.560;9.708;2023-01-01T05:39:41;93.55;;;53.63;;
31782;SDS011;18351;47.560;9.708;2023-01-01T05:42:06;90.05;;;55.40;;
31782;SDS011;18351;47.560;9.708;2023-01-01T05:44:32;100.75;;;60.03;;
31782;SDS011;18351;47.560;9.708;2023-01-01T05:46:57;90.85;;;51.97;;
31782;SDS011;18351;47.560;9.708;2023-01-01T05:49:23;91.35;;;54.00;;
31782;SDS011;18351;47.560;9.708;2023-01-01T05:51:48;88.10;;;49.53;;
31782;SDS011;18351;47.560;9.708;2023-01-01T05:54:14;84.78;;;49.88;;
31782;SDS011;18351;47.560;9.708;2023-01-01T05:56:39;79.53;;;46.90;;
31782;SDS011;18351;47.560;9.708;2023-01-01T05:59:05;80.57;;;47.55;;
31782;SDS011;18351;47.560;9.708;2023-01-01T06:01:31;80.00;;;46.55;;
31782;SDS011;18351;47.560;9.708;2023-01-01T06:03:57;79.40;;;45.40;;
31782;SDS011;18351;47.560;9.708;2023-01-01T06:06:24;74.40;;;40.83;;
31782;SDS011;18351;47.560;9.708;2023-01-01T06:08:56;72.97;;;43.53;;
31782;SDS011;18351;47.560;9.708;2023-01-01T06:11:23;70.57;;;41.22;;
31782;SDS011;18351;47.560;9.708;2023-01-01T06:13:53;76.13;;;45.25;;
31782;SDS011;18351;47.560;9.708;2023-01-01T06:16:20;77.10;;;41.97;;
31782;SDS011;18351;47.560;9.708;2023-01-01T06:18:46;68.55;;;39.22;;
31782;SDS011;18351;47.560;9.708;2023-01-01T06:21:15;68.35;;;41.85;;
31782;SDS011;18351;47.560;9.708;2023-01-01T06:23:43;63.15;;;37.72;;
31782;SDS011;18351;47.560;9.708;2023-01-01T06:26:13;64.03;;;38.80;;
31782;SDS011;18351;47.560;9.708;2023-01-01T06:28:43;70.30;;;39.45;;
31782;SDS011;18351;47.560;9.708;2023-01-01T06:31:10;61.40;;;37.00;;
31782;SDS011;18351;47.560;9.708;2023-01-01T06:33:37;54.53;;;33.80;;
31782;SDS011;18351;47.560;9.708;2023-01-01T06:36:04;63.17;;;36.78;;
31782;SDS011;18351;47.560;9.708;2023-01-01T06:38:34;69.60;;;35.63;;
31782;SDS011;18351;47.560;9.708;2023-01-01T06:41:05;52.83;;;29.45;;
31782;SDS011;18351;47.560;9.708;2023-01-01T06:43:34;51.63;;;29.33;;
31782;SDS011;18351;47.560;9.708;2023-01-01T06:46:01;50.55;;;30.20;;
31782;SDS011;18351;47.560;9.708;2023-01-01T06:48:29;59.65;;;33.35;;
31782;SDS011;18351;47.560;9.708;2023-01-01T06:50:56;51.05;;;30.83;;
31782;SDS011;18351;47.560;9.708;2023-01-01T06:53:22;51.85;;;32.03;;
31782;SDS011;18351;47.560;9.708;2023-01-01T06:55:51;54.55;;;30.52;;
31782;SDS011;18351;47.560;9.708;2023-01-01T06:58:17;55.67;;;32.58;;
31782;SDS011;18351;47.560;9.708;2023-01-01T07:00:42;54.38;;;33.45;;
31782;SDS011;18351;47.560;9.708;2023-01-01T07:03:09;72.82;;;44.83;;
31782;SDS011;18351;47.560;9.708;2023-01-01T07:05:34;51.92;;;32.05;;
31782;SDS011;18351;47.560;9.708;2023-01-01T07:08:00;56.03;;;34.05;;
31782;SDS011;18351;47.560;9.708;2023-01-01T07:10:26;45.10;;;29.42;;
31782;SDS011;18351;47.560;9.708;2023-01-01T07:12:51;42.80;;;26.08;;
31782;SDS011;18351;47.560;9.708;2023-01-01T07:15:17;38.53;;;24.73;;
31782;SDS011;18351;47.560;9.708;2023-01-01T07:17:42;37.72;;;22.90;;
31782;SDS011;18351;47.560;9.708;2023-01-01T07:20:08;37.22;;;24.05;;
31782;SDS011;18351;47.560;9.708;2023-01-01T07:22:34;38.97;;;24.65;;
31782;SDS011;18351;47.560;9.708;2023-01-01T07:25:02;31.67;;;21.48;;
31782;SDS011;18351;47.560;9.708;2023-01-01T07:27:28;34.72;;;21.83;;
31782;SDS011;18351;47.560;9.708;2023-01-01T07:29:53;39.38;;;26.33;;
31782;SDS011;18351;47.560;9.708;2023-01-01T07:32:19;41.20;;;26.48;;
31782;SDS011;18351;47.560;9.708;2023-01-01T07:34:44;34.88;;;22.58;;
31782;SDS011;18351;47.560;9.708;2023-01-01T07:37:10;32.58;;;22.33;;
31782;SDS011;18351;47.560;9.708;2023-01-01T07:39:35;49.72;;;35.15;;
31782;SDS011;18351;47.560;9.708;2023-01-01T07:42:01;49.83;;;36.47;;
31782;SDS011;18351;47.560;9.708;2023-01-01T07:44:26;56.00;;;34.30;;
31782;SDS011;18351;47.560;9.708;2023-01-01T07:47:04;39.22;;;25.50;;
31782;SDS011;18351;47.560;9.708;2023-01-01T07:49:42;30.98;;;19.73;;
31782;SDS011;18351;47.560;9.708;2023-01-01T07:52:08;28.20;;;18.55;;
31782;SDS011;18351;47.560;9.708;2023-01-01T07:54:33;24.75;;;15.77;;
31782;SDS011;18351;47.560;9.708;2023-01-01T07:56:59;30.60;;;16.08;;
31782;SDS011;18351;47.560;9.708;2023-01-01T08:14:17;28.58;;;17.50;;
31782;SDS011;18351;47.560;9.708;2023-01-01T08:16:43;27.85;;;18.00;;
31782;SDS011;18351;47.560;9.708;2023-01-01T08:19:08;26.42;;;17.95;;
31782;SDS011;18351;47.560;9.708;2023-01-01T08:21:34;25.50;;;16.48;;
31782;SDS011;18351;47.560;9.708;2023-01-01T08:23:59;23.17;;;15.10;;
31782;SDS011;18351;47.560;9.708;2023-01-01T08:26:26;25.23;;;16.40;;
31782;SDS011;18351;47.560;9.708;2023-01-01T08:28:54;28.27;;;16.70;;
31782;SDS011;18351;47.560;9.708;2023-01-01T08:31:19;25.05;;;15.73;;
31782;SDS011;18351;47.560;9.708;2023-01-01T08:33:45;23.60;;;15.60;;
31782;SDS011;18351;47.560;9.708;2023-01-01T08:36:11;29.80;;;17.98;;
31782;SDS011;18351;47.560;9.708;2023-01-01T08:38:38;25.17;;;16.45;;
31782;SDS011;18351;47.560;9.708;2023-01-01T08:41:04;31.85;;;18.35;;
31782;SDS011;18351;47.560;9.708;2023-01-01T08:43:30;28.65;;;17.63;;
31782;SDS011;18351;47.560;9.708;2023-01-01T08:45:55;24.30;;;16.00;;
31782;SDS011;18351;47.560;9.708;2023-01-01T08:48:21;26.83;;;18.13;;
31782;SDS011;18351;47.560;9.708;2023-01-01T08:50:52;28.35;;;19.13;;
31782;SDS011;18351;47.560;9.708;2023-01-01T08:53:24;27.20;;;16.65;;
31782;SDS011;18351;47.560;9.708;2023-01-01T08:58:25;47.83;;;35.78;;
31782;SDS011;18351;47.560;9.708;2023-01-01T09:00:52;32.72;;;21.00;;
31782;SDS011;18351;47.560;9.708;2023-01-01T09:03:17;28.80;;;17.98;;
31782;SDS011;18351;47.560;9.708;2023-01-01T09:05:43;29.38;;;20.42;;
31782;SDS011;18351;47.560;9.708;2023-01-01T09:08:10;33.45;;;21.73;;
31782;SDS011;18351;47.560;9.708;2023-01-01T09:10:36;29.30;;;18.65;;
31782;SDS011;18351;47.560;9.708;2023-01-01T09:13:02;25.60;;;17.33;;
31782;SDS011;18351;47.560;9.708;2023-01-01T09:15:28;24.08;;;15.90;;
31782;SDS011;18351;47.560;9.708;2023-01-01T09:17:53;22.05;;;15.65;;
31782;SDS011;18351;47.560;9.708;2023-01-01T09:20:19;25.48;;;16.90;;
31782;SDS011;18351;47.560;9.708;2023-01-01T09:22:44;22.33;;;15.50;;
31782;SDS011;18351;47.560;9.708;2023-01-01T09:25:10;25.10;;;17.38;;
31782;SDS011;18351;47.560;9.708;2023-01-01T09:27:35;25.25;;;17.88;;
31782;SDS011;18351;47.560;9.708;2023-01-01T09:30:01;26.73;;;18.63;;
31782;SDS011;18351;47.560;9.708;2023-01-01T09:32:27;29.38;;;18.67;;
31782;SDS011;18351;47.560;9.708;2023-01-01T09:34:52;27.85;;;18.25;;
31782;SDS011;18351;47.560;9.708;2023-01-01T09:37:18;27.08;;;18.13;;
31782;SDS011;18351;47.560;9.708;2023-01-01T09:39:44;32.45;;;21.90;;
31782;SDS011;18351;47.560;9.708;2023-01-01T09:47:36;40.25;;;27.73;;
31782;SDS011;18351;47.560;9.708;2023-01-01T09:50:33;39.97;;;26.73;;
31782;SDS011;18351;47.560;9.708;2023-01-01T09:53:03;41.50;;;25.92;;
31782;SDS011;18351;47.560;9.708;2023-01-01T09:58:27;39.38;;;25.85;;
31782;SDS011;18351;47.560;9.708;2023-01-01T10:00:57;42.28;;;28.60;;
31782;SDS011;18351;47.560;9.708;2023-01-01T10:06:26;38.92;;;25.83;;
31782;SDS011;18351;47.560;9.708;2023-01-01T10:12:07;35.47;;;23.60;;
31782;SDS011;18351;47.560;9.708;2023-01-01T10:15:03;36.78;;;24.77;;
31782;SDS011;18351;47.560;9.708;2023-01-01T10:17:56;37.53;;;25.27;;
31782;SDS011;18351;47.560;9.708;2023-01-01T10:20:25;35.10;;;24.90;;
31782;SDS011;18351;47.560;9.708;2023-01-01T10:23:16;34.15;;;24.02;;
31782;SDS011;18351;47.560;9.708;2023-01-01T10:25:51;34.38;;;22.70;;
31782;SDS011;18351;47.560;9.708;2023-01-01T10:28:21;33.13;;;23.08;;
31782;SDS011;18351;47.560;9.708;2023-01-01T10:31:04;33.53;;;23.55;;
31782;SDS011;18351;47.560;9.708;2023-01-01T10:33:43;33.55;;;22.95;;
31782;SDS011;18351;47.560;9.708;2023-01-01T10:36:10;34.03;;;22.65;;
31782;SDS011;18351;47.560;9.708;2023-01-01T10:38:40;35.58;;;23.83;;
31782;SDS011;18351;47.560;9.708;2023-01-01T10:41:06;30.70;;;21.58;;
31782;SDS011;18351;47.560;9.708;2023-01-01T10:43:33;31.40;;;22.50;;
31782;SDS011;18351;47.560;9.708;2023-01-01T10:46:00;31.17;;;22.42;;
31782;SDS011;18351;47.560;9.708;2023-01-01T10:48:27;30.52;;;20.55;;
31782;SDS011;18351;47.560;9.708;2023-01-01T10:50:55;31.40;;;21.13;;
31782;SDS011;18351;47.560;9.708;2023-01-01T10:56:06;28.70;;;20.00;;
31782;SDS011;18351;47.560;9.708;2023-01-01T11:01:02;16.35;;;10.85;;
31782;SDS011;18351;47.560;9.708;2023-01-01T11:03:29;16.83;;;10.95;;
31782;SDS011;18351;47.560;9.708;2023-01-01T11:06:01;15.65;;;10.18;;
31782;SDS011;18351;47.560;9.708;2023-01-01T11:08:31;13.73;;;9.70;;
31782;SDS011;18351;47.560;9.708;2023-01-01T11:10:59;11.00;;;7.30;;
31782;SDS011;18351;47.560;9.708;2023-01-01T11:13:26;8.00;;;5.47;;
31782;SDS011;18351;47.560;9.708;2023-01-01T11:15:53;7.75;;;3.90;;
31782;SDS011;18351;47.560;9.708;2023-01-01T11:18:27;6.55;;;4.30;;
31782;SDS011;18351;47.560;9.708;2023-01-01T11:21:02;5.38;;;3.88;;
31782;SDS011;18351;47.560;9.708;2023-01-01T11:23:36;5.65;;;4.00;;
31782;SDS011;18351;47.560;9.708;2023-01-01T11:28:32;4.10;;;3.13;;
31782;SDS011;18351;47.560;9.708;2023-01-01T11:33:30;5.45;;;2.90;;
31782;SDS011;18351;47.560;9.708;2023-01-01T11:35:59;3.97;;;2.65;;
31782;SDS011;18351;47.560;9.708;2023-01-01T11:38:26;3.00;;;2.47;;
31782;SDS011;18351;47.560;9.708;2023-01-01T11:40:52;3.00;;;2.50;;
31782;SDS011;18351;47.560;9.708;2023-01-01T11:43:23;5.78;;;3.08;;
31782;SDS011;18351;47.560;9.708;2023-01-01T11:45:52;3.75;;;2.55;;
31782;SDS011;18351;47.560;9.708;2023-01-01T11:48:27;4.13;;;2.65;;
31782;SDS011;18351;47.560;9.708;2023-01-01T11:50:57;3.28;;;2.20;;
31782;SDS011;18351;47.560;9.708;2023-01-01T11:53:27;5.90;;;2.50;;
31782;SDS011;18351;47.560;9.708;2023-01-01T12:01:01;2.38;;;2.13;;
31782;SDS011;18351;47.560;9.708;2023-01-01T12:03:51;4.65;;;2.58;;
31782;SDS011;18351;47.560;9.708;2023-01-01T12:06:30;2.83;;;2.10;;
31782;SDS011;18351;47.560;9.708;2023-01-01T12:09:11;3.15;;;2.25;;
31782;SDS011;18351;47.560;9.708;2023-01-01T12:11:43;3.67;;;2.55;;
31782;SDS011;18351;47.560;9.708;2023-01-01T12:14:25;3.00;;;2.40;;
31782;SDS011;18351;47.560;9.708;2023-01-01T12:16:58;2.85;;;2.15;;
31782;SDS011;18351;47.560;9.708;2023-01-01T12:22:09;2.47;;;2.10;;
31782;SDS011;18351;47.560;9.708;2023-01-01T12:24:42;7.72;;;2.45;;
31782;SDS011;18351;47.560;9.708;2023-01-01T12:32:15;2.13;;;1.85;;
31782;SDS011;18351;47.560;9.708;2023-01-01T12:34:57;3.22;;;1.80;;
31782;SDS011;18351;47.560;9.708;2023-01-01T12:37:49;3.67;;;2.28;;
31782;SDS011;18351;47.560;9.708;2023-01-01T12:43:10;3.92;;;2.00;;
31782;SDS011;18351;47.560;9.708;2023-01-01T12:46:27;3.75;;;2.20;;
31782;SDS011;18351;47.560;9.708;2023-01-01T12:53:41;3.97;;;2.20;;
31782;SDS011;18351;47.560;9.708;2023-01-01T12:56:14;2.33;;;1.90;;
31782;SDS011;18351;47.560;9.708;2023-01-01T12:58:53;3.30;;;2.17;;
31782;SDS011;18351;47.560;9.708;2023-01-01T13:01:22;5.07;;;2.38;;
31782;SDS011;18351;47.560;9.708;2023-01-01T13:03:56;3.05;;;2.20;;
31782;SDS011;18351;47.560;9.708;2023-01-01T13:06:30;5.38;;;2.00;;
31782;SDS011;18351;47.560;9.708;2023-01-01T13:09:33;2.97;;;2.17;;
31782;SDS011;18351;47.560;9.708;2023-01-01T13:12:08;8.98;;;2.05;;
31782;SDS011;18351;47.560;9.708;2023-01-01T13:14:40;3.35;;;2.13;;
31782;SDS011;18351;47.560;9.708;2023-01-01T13:17:17;3.67;;;2.15;;
31782;SDS011;18351;47.560;9.708;2023-01-01T13:19:56;4.28;;;2.30;;
31782;SDS011;18351;47.560;9.708;2023-01-01T13:22:39;5.68;;;2.15;;
31782;SDS011;18351;47.560;9.708;2023-01-01T13:46:29;6.13;;;2.00;;
31782;SDS011;18351;47.560;9.708;2023-01-01T13:49:11;2.88;;;2.08;;
31782;SDS011;18351;47.560;9.708;2023-01-01T13:57:26;3.50;;;2.13;;
31782;SDS011;18351;47.560;9.708;2023-01-01T14:03:11;3.55;;;2.10;;
31782;SDS011;18351;47.560;9.708;2023-01-01T14:05:45;4.05;;;2.38;;
31782;SDS011;18351;47.560;9.708;2023-01-01T14:08:30;3.65;;;2.10;;
31782;SDS011;18351;47.560;9.708;2023-01-01T14:10:57;2.72;;;1.95;;
31782;SDS011;18351;47.560;9.708;2023-01-01T14:13:26;3.30;;;2.42;;
31782;SDS011;18351;47.560;9.708;2023-01-01T14:16:00;2.53;;;1.90;;
31782;SDS011;18351;47.560;9.708;2023-01-01T14:18:30;4.00;;;2.58;;
31782;SDS011;18351;47.560;9.708;2023-01-01T14:21:02;4.32;;;2.60;;
31782;SDS011;18351;47.560;9.708;2023-01-01T14:23:42;5.20;;;3.45;;
31782;SDS011;18351;47.560;9.708;2023-01-01T14:26:14;4.50;;;3.80;;
31782;SDS011;18351;47.560;9.708;2023-01-01T14:28:42;5.13;;;3.65;;
31782;SDS011;18351;47.560;9.708;2023-01-01T14:31:12;4.70;;;3.70;;
31782;SDS011;18351;47.560;9.708;2023-01-01T14:33:44;5.70;;;4.05;;
31782;SDS011;18351;47.560;9.708;2023-01-01T14:36:14;4.90;;;3.70;;
31782;SDS011;18351;47.560;9.708;2023-01-01T14:38:52;5.57;;;4.55;;
31782;SDS011;18351;47.560;9.708;2023-01-01T14:41:28;6.40;;;3.80;;
31782;SDS011;18351;47.560;9.708;2023-01-01T14:43:58;6.38;;;4.03;;
31782;SDS011;18351;47.560;9.708;2023-01-01T14:46:39;3.88;;;2.97;;
31782;SDS011;18351;47.560;9.708;2023-01-01T14:49:11;4.50;;;3.35;;
31782;SDS011;18351;47.560;9.708;2023-01-01T14:51:43;5.65;;;3.83;;
31782;SDS011;18351;47.560;9.708;2023-01-01T14:54:20;5.38;;;3.45;;
31782;SDS011;18351;47.560;9.708;2023-01-01T14:56:49;3.95;;;3.00;;
31782;SDS011;18351;47.560;9.708;2023-01-01T15:04:36;6.32;;;3.88;;
31782;SDS011;18351;47.560;9.708;2023-01-01T15:07:02;4.85;;;2.85;;
31782;SDS011;18351;47.560;9.708;2023-01-01T15:09:27;14.15;;;5.35;;
31782;SDS011;18351;47.560;9.708;2023-01-01T15:11:55;13.52;;;8.18;;
31782;SDS011;18351;47.560;9.708;2023-01-01T15:17:06;16.35;;;10.10;;
31782;SDS011;18351;47.560;9.708;2023-01-01T15:19:33;13.43;;;8.43;;
31782;SDS011;18351;47.560;9.708;2023-01-01T15:22:00;13.35;;;6.40;;
31782;SDS011;18351;47.560;9.708;2023-01-01T15:24:35;8.02;;;4.90;;
31782;SDS011;18351;47.560;9.708;2023-01-01T15:27:02;11.85;;;5.03;;
31782;SDS011;18351;47.560;9.708;2023-01-01T15:29:31;5.65;;;4.43;;
31782;SDS011;18351;47.560;9.708;2023-01-01T15:32:00;8.68;;;4.15;;
31782;SDS011;18351;47.560;9.708;2023-01-01T15:37:30;5.95;;;3.45;;
31782;SDS011;18351;47.560;9.708;2023-01-01T15:39:57;18.92;;;13.70;;
31782;SDS011;18351;47.560;9.708;2023-01-01T15:47:50;16.65;;;10.23;;
31782;SDS011;18351;47.560;9.708;2023-01-01T15:52:51;13.05;;;7.03;;
31782;SDS011;18351;47.560;9.708;2023-01-01T15:55:22;10.98;;;6.53;;
31782;SDS011;18351;47.560;9.708;2023-01-01T15:57:51;7.25;;;5.15;;
31782;SDS011;18351;47.560;9.708;2023-01-01T16:00:20;14.93;;;4.85;;
31782;SDS011;18351;47.560;9.708;2023-01-01T16:02:54;6.45;;;4.65;;
31782;SDS011;18351;47.560;9.708;2023-01-01T16:05:24;4.20;;;3.80;;
31782;SDS011;18351;47.560;9.708;2023-01-01T16:07:58;6.18;;;3.45;;
31782;SDS011;18351;47.560;9.708;2023-01-01T16:10:26;5.80;;;3.63;;
31782;SDS011;18351;47.560;9.708;2023-01-01T16:12:51;6.32;;;3.67;;
31782;SDS011;18351;47.560;9.708;2023-01-01T16:15:17;10.68;;;4.30;;
31782;SDS011;18351;47.560;9.708;2023-01-01T16:17:43;6.55;;;4.05;;
31782;SDS011;18351;47.560;9.708;2023-01-01T16:20:12;14.20;;;12.25;;
31782;SDS011;18351;47.560;9.708;2023-01-01T16:22:39;10.02;;;8.27;;
31782;SDS011;18351;47.560;9.708;2023-01-01T16:25:13;11.05;;;8.23;;
31782;SDS011;18351;47.560;9.708;2023-01-01T16:27:42;11.85;;;7.75;;
31782;SDS011;18351;47.560;9.708;2023-01-01T16:30:08;13.32;;;7.32;;
31782;SDS011;18351;47.560;9.708;2023-01-01T16:32:35;54.55;;;36.72;;
31782;SDS011;18351;47.560;9.708;2023-01-01T16:35:01;37.00;;;27.10;;
31782;SDS011;18351;47.560;9.708;2023-01-01T16:37:27;32.60;;;22.98;;
31782;SDS011;18351;47.560;9.708;2023-01-01T16:39:52;52.45;;;33.03;;
31782;SDS011;18351;47.560;9.708;2023-01-01T16:42:18;17.48;;;11.15;;
31782;SDS011;18351;47.560;9.708;2023-01-01T16:44:43;19.15;;;10.88;;
31782;SDS011;18351;47.560;9.708;2023-01-01T16:47:09;14.65;;;10.20;;
31782;SDS011;18351;47.560;9.708;2023-01-01T16:49:35;13.70;;;8.50;;
31782;SDS011;18351;47.560;9.708;2023-01-01T16:52:00;11.10;;;7.85;;
31782;SDS011;18351;47.560;9.708;2023-01-01T16:54:27;17.75;;;11.13;;
31782;SDS011;18351;47.560;9.708;2023-01-01T16:56:52;20.75;;;10.48;;
31782;SDS011;18351;47.560;9.708;2023-01-01T16:59:18;15.98;;;8.13;;
31782;SDS011;18351;47.560;9.708;2023-01-01T17:01:44;14.75;;;9.15;;
31782;SDS011;18351;47.560;9.708;2023-01-01T17:04:10;14.95;;;8.70;;
31782;SDS011;18351;47.560;9.708;2023-01-01T17:06:37;12.77;;;7.53;;
31782;SDS011;18351;47.560;9.708;2023-01-01T17:09:03;12.80;;;8.02;;
31782;SDS011;18351;47.560;9.708;2023-01-01T17:11:29;9.40;;;6.60;;
31782;SDS011;18351;47.560;9.708;2023-01-01T17:13:54;10.15;;;7.00;;